Time;durP1;ratioP1;P1;durP2;ratioP2;P2;SDS_P1;SDS_P2;PMS_P1;PMS_P2;Temp;Humidity;BMP_temperature;BMP_pressure;BME280_temperature;BME280_humidity;BME280_pressure;Samples;Min_cycle;Max_cycle;Signal;HPM_P1;HPM_P2
2023/01/23 00:02:35;;;;;;;19.63;12.43;;;;;;;-0.82;nan;98831.28;6244307;28;20222;-62
2023/01/23 00:05:37;;;;;;;21.67;13.50;;;;;;;-0.83;nan;98834.75;6241885;28;20232;-62
2023/01/23 00:08:41;;;;;;;19.30;12.67;;;;;;;-0.82;nan;98840.78;6241813;28;20239;-62
2023/01/23 00:11:44;;;;;;;23.97;13.20;;;;;;;-0.82;nan;98838.19;6239413;28;20465;-62
2023/01/23 00:14:46;;;;;;;21.70;13.70;;;;;;;-0.81;nan;98842.50;6238081;28;20378;-62
2023/01/23 00:17:49;;;;;;;24.23;14.83;;;;;;;-0.82;nan;98849.41;6238721;28;20258;-62
2023/01/23 00:20:51;;;;;;;23.17;14.63;;;;;;;-0.83;nan;98845.13;6239134;28;20240;-62
2023/01/23 00:23:58;;;;;;;23.43;13.90;;;;;;;-0.83;nan;98849.44;6238439;28;20227;-62
2023/01/23 00:27:00;;;;;;;20.03;13.53;;;;;;;-0.81;nan;98845.94;6240005;28;20306;-62
2023/01/23 00:30:03;;;;;;;23.03;13.67;;;;;;;-0.82;nan;98836.47;6240307;28;20249;-62
2023/01/23 00:33:05;;;;;;;22.10;13.63;;;;;;;-0.80;nan;98842.44;6241589;28;20653;-62
2023/01/23 00:36:08;;;;;;;24.07;14.73;;;;;;;-0.81;nan;98838.19;6241393;28;20203;-62
2023/01/23 00:39:19;;;;;;;22.70;14.20;;;;;;;-0.80;nan;98849.41;6243160;28;20304;-62
2023/01/23 00:42:21;;;;;;;21.13;14.30;;;;;;;-0.81;nan;98848.53;6232847;28;20715;-64
2023/01/23 00:45:23;;;;;;;24.40;15.27;;;;;;;-0.80;nan;98844.22;6235711;28;20451;-63
2023/01/23 00:48:26;;;;;;;26.50;15.00;;;;;;;-0.79;nan;98838.97;6210801;28;20223;-61
2023/01/23 00:51:33;;;;;;;21.97;14.00;;;;;;;-0.81;nan;98838.19;6215702;28;20329;-62
2023/01/23 00:54:37;;;;;;;24.63;15.30;;;;;;;-0.81;nan;98835.59;6238624;28;20232;-61
2023/01/23 00:57:39;;;;;;;26.87;16.37;;;;;;;-0.81;nan;98835.59;6236417;28;20258;-61
2023/01/23 01:00:41;;;;;;;26.10;15.07;;;;;;;-0.82;nan;98839.06;6238154;28;20681;-63
2023/01/23 01:03:44;;;;;;;24.07;15.13;;;;;;;-0.82;nan;98833.00;6223986;28;20233;-64
2023/01/23 01:06:46;;;;;;;26.20;15.40;;;;;;;-0.83;nan;98826.97;6243201;28;20235;-63
2023/01/23 01:09:51;;;;;;;25.37;15.13;;;;;;;-0.82;nan;98823.50;6238702;28;20247;-61
2023/01/23 01:12:54;;;;;;;27.80;16.47;;;;;;;-0.83;nan;98824.38;6241760;28;20230;-62
2023/01/23 01:15:56;;;;;;;25.97;16.10;;;;;;;-0.84;nan;98827.84;6243649;28;20267;-63
2023/01/23 01:19:02;;;;;;;26.17;16.30;;;;;;;-0.84;nan;98829.59;6242909;28;20262;-63
2023/01/23 01:22:08;;;;;;;27.10;16.80;;;;;;;-0.83;nan;98832.16;6245292;28;20626;-63
2023/01/23 01:25:10;;;;;;;25.63;15.67;;;;;;;-0.83;nan;98833.88;6231773;28;20234;-63
2023/01/23 01:28:12;;;;;;;27.67;16.17;;;;;;;-0.83;nan;98842.53;6242887;28;20231;-64
2023/01/23 01:31:15;;;;;;;26.07;16.03;;;;;;;-0.80;nan;98836.44;6238468;28;20231;-63
2023/01/23 01:34:18;;;;;;;25.97;16.10;;;;;;;-0.83;nan;98837.34;6221183;28;20350;-63
2023/01/23 01:37:24;;;;;;;24.57;16.13;;;;;;;-0.83;nan;98845.13;6238120;28;20232;-62
2023/01/23 01:40:31;;;;;;;24.80;15.37;;;;;;;-0.82;nan;98841.66;6240281;28;20310;-63
2023/01/23 01:43:34;;;;;;;28.40;16.60;;;;;;;-0.82;nan;98843.38;6243422;28;20227;-63
2023/01/23 01:46:37;;;;;;;25.83;15.70;;;;;;;-0.81;nan;98840.78;6218346;28;20220;-63
2023/01/23 01:49:39;;;;;;;29.03;17.23;;;;;;;-0.80;nan;98846.81;6243389;28;20228;-62
2023/01/23 01:52:43;;;;;;;26.27;15.27;;;;;;;-0.79;nan;98836.38;6237677;28;20967;-62
2023/01/23 01:55:45;;;;;;;27.87;15.53;;;;;;;-0.80;nan;98821.72;6242218;28;20238;-63
2023/01/23 01:58:50;;;;;;;25.70;15.90;;;;;;;-0.80;nan;98826.91;6224349;28;20584;-63
2023/01/23 02:02:03;;;;;;;25.67;16.23;;;;;;;-0.79;nan;98830.34;6223401;28;20276;-63
2023/01/23 02:05:25;;;;;;;25.50;15.90;;;;;;;-0.78;nan;98813.91;6223055;28;20223;-63
2023/01/23 02:08:52;;;;;;;26.93;16.30;;;;;;;-0.80;nan;98811.34;6216564;28;20238;-63
2023/01/23 02:11:54;;;;;;;33.30;16.80;;;;;;;-0.79;nan;98810.47;6238564;28;20242;-63
2023/01/23 02:14:57;;;;;;;24.47;15.50;;;;;;;-0.80;nan;98808.75;6221671;28;20582;-63
2023/01/23 02:17:59;;;;;;;28.10;17.30;;;;;;;-0.79;nan;98813.06;6243151;28;20384;-63
2023/01/23 02:21:05;;;;;;;32.50;17.80;;;;;;;-0.79;nan;98797.53;6241258;28;20560;-63
2023/01/23 02:24:14;;;;;;;28.27;17.27;;;;;;;-0.79;nan;98796.66;6232942;28;20567;-62
2023/01/23 02:27:19;;;;;;;31.07;15.97;;;;;;;-0.79;nan;98794.06;6235999;28;20572;-63
2023/01/23 02:30:24;;;;;;;31.23;17.13;;;;;;;-0.81;nan;98775.97;6215388;28;20719;-63
2023/01/23 02:33:30;;;;;;;29.43;17.13;;;;;;;-0.82;nan;98778.59;6223775;28;20223;-63
2023/01/23 02:36:34;;;;;;;31.53;16.90;;;;;;;-0.84;nan;98804.53;6221719;28;20303;-63
2023/01/23 02:39:38;;;;;;;31.33;16.10;;;;;;;-0.85;nan;98808.00;6223391;28;20220;-63
2023/01/23 02:42:45;;;;;;;34.53;19.53;;;;;;;-0.85;nan;98808.00;6229169;28;20231;-62
2023/01/23 02:45:52;;;;;;;31.47;17.27;;;;;;;-0.86;nan;98808.88;6219699;28;20227;-63
2023/01/23 02:48:54;;;;;;;31.53;18.17;;;;;;;-0.87;nan;98819.25;6222590;28;20267;-63
2023/01/23 02:51:57;;;;;;;31.60;17.37;;;;;;;-0.86;nan;98829.59;6223603;28;20234;-62
2023/01/23 02:54:59;;;;;;;32.17;18.93;;;;;;;-0.85;nan;98823.53;6228439;28;20635;-63
2023/01/23 03:01:25;;;;;;;38.23;19.13;;;;;;;-0.84;nan;98840.81;6229374;28;20411;-62
2023/01/23 03:04:27;;;;;;;29.67;17.17;;;;;;;-0.81;nan;98837.31;6235329;28;20231;-62
2023/01/23 03:07:30;;;;;;;36.03;17.57;;;;;;;-0.81;nan;98840.78;6222794;28;20233;-62
2023/01/23 03:10:32;;;;;;;33.73;18.23;;;;;;;-0.80;nan;98839.03;6236005;28;20246;-62
2023/01/23 03:13:34;;;;;;;32.07;18.50;;;;;;;-0.80;nan;98831.25;6216599;28;20234;-62
2023/01/23 03:16:40;;;;;;;33.50;17.73;;;;;;;-0.78;nan;98834.66;6235564;28;20228;-63
2023/01/23 03:19:42;;;;;;;33.60;17.53;;;;;;;-0.79;nan;98831.22;6220746;28;20710;-64
2023/01/23 03:22:45;;;;;;;33.27;17.97;;;;;;;-0.79;nan;98826.03;6215645;28;20318;-63
2023/01/23 03:25:47;;;;;;;32.30;17.20;;;;;;;-0.79;nan;98836.38;6239785;28;20238;-63
2023/01/23 03:32:12;;;;;;;37.97;18.30;;;;;;;-0.80;nan;98844.22;6222965;28;20227;-62
2023/01/23 03:35:15;;;;;;;33.13;17.80;;;;;;;-0.79;nan;98830.34;6220430;28;20234;-62
2023/01/23 03:38:18;;;;;;;39.40;20.83;;;;;;;-0.80;nan;98818.31;6218055;28;20320;-63
2023/01/23 03:41:25;;;;;;;37.40;20.33;;;;;;;-0.82;nan;98809.69;6227041;28;20326;-63
2023/01/23 03:44:31;;;;;;;45.83;21.80;;;;;;;-0.84;nan;98809.72;6222957;28;20561;-63
2023/01/23 03:47:33;;;;;;;41.80;22.67;;;;;;;-0.89;nan;98824.47;6223165;28;20232;-63
2023/01/23 03:50:36;;;;;;;46.10;21.70;;;;;;;-0.87;nan;98840.84;6237497;28;20223;-62
2023/01/23 03:53:38;;;;;;;44.50;21.30;;;;;;;-0.89;nan;98834.81;6224440;28;20211;-62
2023/01/23 03:56:41;;;;;;;41.93;21.93;;;;;;;-0.89;nan;98828.78;6234062;28;20254;-63
2023/01/23 03:59:59;;;;;;;40.90;21.03;;;;;;;-0.90;nan;98822.75;6220097;28;20239;-62
2023/01/23 04:03:14;;;;;;;40.53;21.20;;;;;;;-0.90;nan;98811.56;6240913;28;20227;-62
2023/01/23 04:06:17;;;;;;;37.50;19.37;;;;;;;-0.90;nan;98825.34;6236606;28;20257;-62
2023/01/23 04:09:26;;;;;;;40.90;21.63;;;;;;;-0.89;nan;98819.28;6227702;28;20681;-63
2023/01/23 04:12:30;;;;;;;41.43;21.60;;;;;;;-0.89;nan;98813.25;6205941;28;20699;-63
2023/01/23 04:15:33;;;;;;;46.07;21.07;;;;;;;-0.89;nan;98808.06;6227546;28;20301;-63
2023/01/23 04:18:39;;;;;;;41.50;20.33;;;;;;;-0.89;nan;98808.06;6221779;28;20224;-62
2023/01/23 04:21:41;;;;;;;41.03;22.13;;;;;;;-0.90;nan;98817.56;6227441;28;20270;-62
2023/01/23 04:24:44;;;;;;;42.07;22.20;;;;;;;-0.90;nan;98817.56;6226469;28;20231;-63
2023/01/23 04:27:47;;;;;;;44.83;22.20;;;;;;;-0.91;nan;98826.25;6223772;28;20741;-63
2023/01/23 04:30:51;;;;;;;42.47;21.90;;;;;;;-0.91;nan;98827.97;6226818;28;20250;-63
2023/01/23 04:34:00;;;;;;;46.20;22.97;;;;;;;-0.92;nan;98829.72;6225165;28;20243;-62
2023/01/23 04:37:03;;;;;;;39.93;22.00;;;;;;;-0.92;nan;98823.69;6225101;28;20569;-63
2023/01/23 04:40:07;;;;;;;43.00;22.67;;;;;;;-0.92;nan;98821.09;6211494;28;20603;-62
2023/01/23 04:43:19;;;;;;;43.87;23.80;;;;;;;-0.93;nan;98822.81;6211232;28;20234;-62
2023/01/23 04:46:24;;;;;;;44.80;23.73;;;;;;;-0.93;nan;98819.38;6219251;28;20239;-63
2023/01/23 04:49:34;;;;;;;42.50;23.33;;;;;;;-0.91;nan;98809.84;6224674;28;20231;-62
2023/01/23 04:52:37;;;;;;;43.53;23.40;;;;;;;-0.91;nan;98810.72;6241486;28;20835;-62
2023/01/23 04:55:39;;;;;;;43.03;23.20;;;;;;;-0.88;nan;98807.19;6224866;28;20255;-62
2023/01/23 04:58:45;;;;;;;43.20;22.80;;;;;;;-0.89;nan;98810.66;6242629;28;20453;-62
2023/01/23 05:01:52;;;;;;;43.67;23.37;;;;;;;-0.89;nan;98805.47;6223139;28;20754;-63
2023/01/23 05:04:54;;;;;;;40.57;23.07;;;;;;;-0.86;nan;98818.38;6221504;28;20247;-62
2023/01/23 05:07:56;;;;;;;38.73;22.03;;;;;;;-0.85;nan;98825.28;6240372;28;20223;-63
2023/01/23 05:10:58;;;;;;;41.53;22.63;;;;;;;-0.87;nan;98817.53;6223349;28;20239;-62
2023/01/23 05:14:01;;;;;;;43.80;25.13;;;;;;;-0.84;nan;98814.03;6225553;28;20273;-63
2023/01/23 05:17:05;;;;;;;41.00;23.23;;;;;;;-0.85;nan;98827.88;6223722;28;20706;-63
2023/01/23 05:20:15;;;;;;;44.57;24.63;;;;;;;-0.84;nan;98816.63;6209371;28;20239;-63
2023/01/23 05:23:18;;;;;;;46.57;25.50;;;;;;;-0.84;nan;98825.25;6216653;28;20220;-62
2023/01/23 05:26:24;;;;;;;44.43;24.13;;;;;;;-0.84;nan;98816.63;6242074;28;20238;-62
2023/01/23 05:29:28;;;;;;;44.43;24.53;;;;;;;-0.85;nan;98831.31;6224997;28;20231;-63
2023/01/23 05:32:42;;;;;;;45.87;24.63;;;;;;;-0.85;nan;98822.69;6219204;28;20240;-62
2023/01/23 05:35:50;;;;;;;43.70;25.27;;;;;;;-0.87;nan;98825.31;6218825;28;20287;-62
2023/01/23 05:38:57;;;;;;;51.23;26.20;;;;;;;-0.87;nan;98827.03;6235926;28;20235;-62
2023/01/23 05:42:04;;;;;;;47.10;25.40;;;;;;;-0.91;nan;98831.44;6222804;28;20683;-62
2023/01/23 05:45:25;;;;;;;50.20;25.97;;;;;;;-0.92;nan;98828.84;6241292;28;20642;-62
2023/01/23 05:48:28;;;;;;;54.30;28.27;;;;;;;-0.94;nan;98825.44;6222830;28;20268;-62
2023/01/23 05:51:32;;;;;;;49.67;24.53;;;;;;;-0.97;nan;98815.09;6222731;28;20314;-63
2023/01/23 05:54:34;;;;;;;54.63;27.43;;;;;;;-0.98;nan;98813.41;6225092;28;20444;-62
2023/01/23 05:57:37;;;;;;;55.37;27.27;;;;;;;-0.98;nan;98824.63;6240776;28;20224;-63
2023/01/23 06:00:42;;;;;;;57.23;27.13;;;;;;;-1.00;nan;98822.94;6224214;28;20234;-62
2023/01/23 06:04:03;;;;;;;52.53;26.67;;;;;;;-1.02;nan;98848.88;6236186;28;20322;-63
2023/01/23 06:07:26;;;;;;;58.53;27.47;;;;;;;-1.03;nan;98844.56;6213406;28;20228;-63
2023/01/23 06:10:31;;;;;;;56.17;27.07;;;;;;;-1.05;nan;98856.69;6229247;28;20302;-62
2023/01/23 06:13:35;;;;;;;51.30;26.20;;;;;;;-1.03;nan;98861.84;6211939;28;20231;-62
2023/01/23 06:16:37;;;;;;;50.20;26.80;;;;;;;-1.03;nan;98877.38;6212688;28;20235;-63
2023/01/23 06:19:41;;;;;;;53.63;26.70;;;;;;;-1.04;nan;98886.91;6214538;28;20231;-62
2023/01/23 06:22:44;;;;;;;49.77;26.00;;;;;;;-1.04;nan;98902.44;6217446;28;20373;-62
2023/01/23 06:25:48;;;;;;;53.87;26.83;;;;;;;-1.04;nan;98904.16;6213280;28;20704;-62
2023/01/23 06:28:51;;;;;;;47.60;25.10;;;;;;;-1.04;nan;98923.16;6209833;28;20220;-63
2023/01/23 06:31:54;;;;;;;53.60;26.10;;;;;;;-1.03;nan;98918.84;6217037;28;20232;-62
2023/01/23 06:34:57;;;;;;;51.20;23.83;;;;;;;-1.01;nan;98920.53;6217830;28;20285;-62
2023/01/23 06:38:05;;;;;;;44.73;22.57;;;;;;;-1.03;nan;98919.69;6227372;28;20370;-63
2023/01/23 06:41:09;;;;;;;42.00;23.13;;;;;;;-1.02;nan;98917.97;6213811;28;20254;-63
2023/01/23 06:44:17;;;;;;;41.23;20.17;;;;;;;-1.02;nan;98911.03;6216058;28;20241;-62
2023/01/23 06:47:22;;;;;;;40.93;21.20;;;;;;;-0.99;nan;98912.72;6216806;28;20227;-62
2023/01/23 06:50:32;;;;;;;38.93;20.80;;;;;;;-0.99;nan;98916.16;6205743;28;20332;-62
2023/01/23 06:53:34;;;;;;;35.03;19.40;;;;;;;-0.99;nan;98923.06;6210848;28;20236;-62
2023/01/23 06:56:40;;;;;;;34.40;19.23;;;;;;;-0.99;nan;98921.34;6214756;28;20228;-62
2023/01/23 06:59:45;;;;;;;31.87;16.90;;;;;;;-0.96;nan;98931.66;6210627;28;20221;-62
2023/01/23 07:02:49;;;;;;;34.60;17.13;;;;;;;-0.93;nan;98920.41;6216171;28;20230;-62
2023/01/23 07:05:55;;;;;;;32.10;16.77;;;;;;;-0.90;nan;98922.97;6214636;28;20239;-62
2023/01/23 07:08:59;;;;;;;32.30;16.80;;;;;;;-0.91;nan;98922.13;6240023;28;20231;-62
2023/01/23 07:12:02;;;;;;;32.27;16.57;;;;;;;-0.92;nan;98941.13;6239601;28;20236;-62
2023/01/23 07:15:06;;;;;;;32.47;17.23;;;;;;;-0.91;nan;98935.06;6231439;28;20718;-63
2023/01/23 07:18:12;;;;;;;32.00;16.50;;;;;;;-0.89;nan;98945.38;6222610;28;20260;-62
2023/01/23 07:21:14;;;;;;;33.43;16.97;;;;;;;-0.89;nan;98945.38;6239079;28;20250;-62
2023/01/23 07:24:17;;;;;;;31.43;16.83;;;;;;;-0.87;nan;98948.81;6234378;28;20219;-62
2023/01/23 07:27:19;;;;;;;27.03;15.97;;;;;;;-0.84;nan;98952.22;6239985;28;20214;-62
2023/01/23 07:30:22;;;;;;;30.47;16.13;;;;;;;-0.81;nan;98949.59;6241357;28;20296;-63
2023/01/23 07:33:24;;;;;;;30.27;16.30;;;;;;;-0.80;nan;98948.69;6239095;28;20233;-62
2023/01/23 07:36:27;;;;;;;32.30;16.77;;;;;;;-0.79;nan;98949.56;6239430;28;20234;-62
2023/01/23 07:39:30;;;;;;;34.23;17.80;;;;;;;-0.81;nan;98941.84;6237602;28;20615;-62
2023/01/23 07:42:32;;;;;;;32.87;17.47;;;;;;;-0.81;nan;98940.97;6241906;28;20220;-62
2023/01/23 07:45:34;;;;;;;31.17;16.37;;;;;;;-0.76;nan;98933.97;6245121;28;20234;-63
2023/01/23 07:48:37;;;;;;;33.33;17.77;;;;;;;-0.71;nan;98939.09;6247273;28;20263;-62
2023/01/23 07:51:40;;;;;;;27.00;16.10;;;;;;;-0.69;nan;98939.91;6246280;28;20226;-63
2023/01/23 07:54:42;;;;;;;32.40;17.53;;;;;;;-0.67;nan;98932.97;6245619;28;20219;-63
2023/01/23 07:57:46;;;;;;;28.67;16.57;;;;;;;-0.69;nan;98925.22;6244594;28;20253;-62
2023/01/23 08:00:48;;;;;;;31.47;16.67;;;;;;;-0.67;nan;98920.88;6240251;28;20223;-62
2023/01/23 08:03:52;;;;;;;31.97;17.60;;;;;;;-0.62;nan;98905.25;6246242;28;20223;-62
2023/01/23 08:06:54;;;;;;;34.67;18.23;;;;;;;-0.54;nan;98901.66;6235436;28;20235;-62
2023/01/23 08:09:57;;;;;;;32.93;17.83;;;;;;;-0.48;nan;98911.06;6241857;28;20831;-62
2023/01/23 08:12:59;;;;;;;30.93;16.93;;;;;;;-0.37;nan;98945.44;6234112;28;20238;-62
2023/01/23 08:16:03;;;;;;;29.33;16.90;;;;;;;-0.28;nan;98942.69;6241515;28;20249;-62
2023/01/23 08:19:07;;;;;;;32.50;17.57;;;;;;;-0.22;nan;98950.41;6225320;28;20223;-62
2023/01/23 08:22:09;;;;;;;29.80;17.07;;;;;;;-0.15;nan;98949.41;6236293;28;20215;-62
2023/01/23 08:25:12;;;;;;;30.47;17.07;;;;;;;-0.08;nan;98945.81;6239236;28;20312;-62
2023/01/23 08:28:14;;;;;;;26.00;15.93;;;;;;;-0.03;nan;98956.97;6241550;28;20228;-62
2023/01/23 08:31:16;;;;;;;27.30;15.70;;;;;;;-0.06;nan;98961.34;6243046;28;20228;-62
2023/01/23 08:34:22;;;;;;;28.83;16.20;;;;;;;-0.11;nan;98964.06;6242388;28;20280;-62
2023/01/23 08:37:24;;;;;;;26.77;15.80;;;;;;;-0.13;nan;98967.53;6240916;28;20265;-62
2023/01/23 08:40:27;;;;;;;25.90;15.63;;;;;;;-0.14;nan;98958.03;6240654;28;20249;-62
2023/01/23 08:43:30;;;;;;;28.43;16.37;;;;;;;-0.14;nan;98953.72;6240399;28;20249;-62
2023/01/23 08:46:32;;;;;;;27.20;16.13;;;;;;;-0.16;nan;98958.06;6223932;28;20231;-62
2023/01/23 08:49:35;;;;;;;27.03;15.97;;;;;;;-0.17;nan;98958.09;6240485;28;20927;-62
2023/01/23 08:52:40;;;;;;;30.37;17.10;;;;;;;-0.12;nan;98966.66;6240463;28;20258;-62
2023/01/23 08:55:42;;;;;;;24.83;14.90;;;;;;;-0.15;nan;98972.75;6240811;28;20235;-62
2023/01/23 08:58:45;;;;;;;26.07;15.80;;;;;;;-0.13;nan;98972.72;6238094;28;20235;-62
2023/01/23 09:01:48;;;;;;;28.07;15.77;;;;;;;-0.13;nan;98965.81;6222888;28;20232;-62
2023/01/23 09:04:50;;;;;;;24.73;14.07;;;;;;;-0.14;nan;98974.47;6244089;28;20736;-62
2023/01/23 09:07:56;;;;;;;24.60;15.20;;;;;;;-0.14;nan;98958.91;6174245;28;1850313;-62
2023/01/23 09:11:06;;;;;;;26.10;13.77;;;;;;;-0.15;nan;98952.00;6242787;28;20236;-62
2023/01/23 09:14:08;;;;;;;23.70;14.10;;;;;;;-0.09;nan;98954.47;6238299;28;20228;-62
2023/01/23 09:17:11;;;;;;;26.63;13.53;;;;;;;-0.07;nan;98951.84;6239328;28;20306;-62
2023/01/23 09:20:14;;;;;;;19.57;12.17;;;;;;;-0.02;nan;98960.44;6237651;28;20624;-62
2023/01/23 09:23:16;;;;;;;19.63;11.87;;;;;;;0.02;nan;98953.44;6239851;28;20254;-63
2023/01/23 09:26:19;;;;;;;16.40;10.73;;;;;;;0.13;nan;98954.09;6242594;28;20302;-62
2023/01/23 09:29:21;;;;;;;18.30;10.83;;;;;;;0.11;nan;98950.66;6242623;28;20743;-63
2023/01/23 09:32:27;;;;;;;18.37;11.27;;;;;;;0.14;nan;98948.88;6241648;28;20605;-62
2023/01/23 09:35:29;;;;;;;16.00;10.43;;;;;;;0.21;nan;98957.41;6238601;28;20624;-62
2023/01/23 09:38:32;;;;;;;20.13;12.47;;;;;;;0.25;nan;98946.09;6239227;28;20600;-62
2023/01/23 09:41:38;;;;;;;20.97;11.70;;;;;;;0.28;nan;98944.31;6241676;28;20357;-62
2023/01/23 09:44:50;;;;;;;19.50;11.63;;;;;;;0.30;nan;98939.09;6243703;28;20227;-62
2023/01/23 09:48:01;;;;;;;25.27;13.97;;;;;;;0.34;nan;98940.72;6240821;28;20707;-62
2023/01/23 09:51:24;;;;;;;18.43;11.00;;;;;;;0.34;nan;98954.56;6222090;28;20232;-63
2023/01/23 09:55:13;;;;;;;19.67;10.97;;;;;;;0.35;nan;98942.44;6239276;28;20493;-63
2023/01/23 09:58:22;;;;;;;20.03;12.13;;;;;;;0.27;nan;98952.97;6185063;28;20233;-62
2023/01/23 10:01:27;;;;;;;21.00;11.87;;;;;;;0.29;nan;98950.34;6190828;28;20662;-62
2023/01/23 10:04:30;;;;;;;20.90;12.43;;;;;;;0.33;nan;98939.00;6190972;28;20652;-62
2023/01/23 10:07:41;;;;;;;19.00;12.20;;;;;;;0.28;nan;98951.25;6190579;28;20300;-62
2023/01/23 10:10:51;;;;;;;18.23;11.43;;;;;;;0.24;nan;98965.16;6183526;28;20244;-62
2023/01/23 10:14:42;;;;;;;19.90;13.17;;;;;;;0.24;nan;98975.53;6185492;28;20237;-62
2023/01/23 10:17:53;;;;;;;18.13;11.57;;;;;;;0.18;nan;98973.06;6112403;28;20612;-62
2023/01/23 10:21:04;;;;;;;17.23;11.23;;;;;;;0.27;nan;98971.16;6120031;28;20230;-62
2023/01/23 10:24:38;;;;;;;17.47;11.33;;;;;;;0.37;nan;98966.63;6117290;29;20238;-62
2023/01/23 10:27:48;;;;;;;20.00;12.07;;;;;;;0.46;nan;98971.66;6114665;28;20705;-62
2023/01/23 10:31:02;;;;;;;19.43;12.10;;;;;;;0.57;nan;98966.25;6116829;28;20241;-62
2023/01/23 10:34:25;;;;;;;16.37;11.53;;;;;;;0.59;nan;98967.09;6139369;28;20243;-62
2023/01/23 10:37:44;;;;;;;18.43;11.50;;;;;;;0.53;nan;98959.41;6140983;28;20729;-62
2023/01/23 10:44:14;;;;;;;20.77;12.47;;;;;;;0.34;nan;98964.94;6135772;28;20233;-62
2023/01/23 10:47:28;;;;;;;15.70;10.73;;;;;;;0.26;nan;98961.66;6135301;28;20237;-62
2023/01/23 10:50:38;;;;;;;18.77;11.80;;;;;;;0.26;nan;98950.41;6135681;28;20753;-62
2023/01/23 10:53:40;;;;;;;21.57;12.20;;;;;;;0.22;nan;98952.19;6193639;28;20232;-62
2023/01/23 10:56:51;;;;;;;18.57;12.33;;;;;;;0.26;nan;98943.47;6221363;28;20235;-62
2023/01/23 11:00:15;;;;;;;22.97;13.37;;;;;;;0.26;nan;98947.81;6237953;28;20239;-62
2023/01/23 11:03:20;;;;;;;20.90;12.90;;;;;;;0.34;nan;98931.19;6240070;28;20239;-62
2023/01/23 11:06:27;;;;;;;18.97;12.30;;;;;;;0.44;nan;98931.00;6237258;28;20603;-62
2023/01/23 11:09:30;;;;;;;20.93;12.70;;;;;;;0.56;nan;98921.25;6236314;28;20227;-62
2023/01/23 11:12:44;;;;;;;21.73;13.10;;;;;;;0.65;nan;98917.59;6240610;28;20219;-62
2023/01/23 11:15:48;;;;;;;19.77;12.90;;;;;;;0.80;nan;98906.88;6235543;28;20227;-62
2023/01/23 11:19:08;;;;;;;19.87;12.80;;;;;;;0.87;nan;98887.69;6240382;28;20272;-62
2023/01/23 11:22:33;;;;;;;20.90;12.50;;;;;;;1.01;nan;98895.16;6236589;28;20235;-62
2023/01/23 11:25:41;;;;;;;18.50;12.00;;;;;;;1.07;nan;98895.88;6242516;28;20603;-62
2023/01/23 11:28:48;;;;;;;19.27;11.87;;;;;;;1.06;nan;98898.50;6239151;28;20627;-62
2023/01/23 11:32:03;;;;;;;19.70;11.73;;;;;;;1.06;nan;98906.31;6233839;28;20589;-62
2023/01/23 11:35:14;;;;;;;22.50;12.20;;;;;;;0.97;nan;98916.91;6235655;28;20396;-62
2023/01/23 11:38:21;;;;;;;20.73;12.83;;;;;;;0.88;nan;98906.72;6234368;28;20736;-62
2023/01/23 11:41:36;;;;;;;24.57;13.20;;;;;;;0.74;nan;98900.06;6237232;28;20231;-62
2023/01/23 11:44:41;;;;;;;18.83;12.20;;;;;;;0.67;nan;98890.72;6238045;28;20897;-61
2023/01/23 11:48:10;;;;;;;20.20;12.03;;;;;;;0.65;nan;98904.59;6239045;28;20235;-62
2023/01/23 11:51:24;;;;;;;21.63;12.43;;;;;;;0.59;nan;98894.38;6236000;28;20278;-62
2023/01/23 11:54:51;;;;;;;18.93;12.00;;;;;;;0.58;nan;98898.69;6238864;28;20234;-62
2023/01/23 11:58:13;;;;;;;21.10;12.40;;;;;;;0.60;nan;98889.09;6228064;28;20252;-61
2023/01/23 12:01:49;;;;;;;19.40;12.27;;;;;;;0.65;nan;98881.22;6236718;28;20231;-62
2023/01/23 12:05:18;;;;;;;19.50;13.03;;;;;;;0.76;nan;98884.47;6236361;28;20657;-62
2023/01/23 12:08:48;;;;;;;20.70;12.43;;;;;;;0.76;nan;98866.28;6238384;28;20239;-62
2023/01/23 12:12:14;;;;;;;18.00;11.63;;;;;;;0.87;nan;98879.03;6233752;28;20231;-62
2023/01/23 12:15:22;;;;;;;20.70;12.47;;;;;;;0.88;nan;98876.41;6236395;28;20223;-62
2023/01/23 12:18:37;;;;;;;20.03;12.97;;;;;;;0.83;nan;98880.81;6240893;28;20425;-61
2023/01/23 12:21:50;;;;;;;18.50;12.17;;;;;;;0.82;nan;98875.66;6232616;28;20228;-62
2023/01/23 12:25:17;;;;;;;17.73;11.40;;;;;;;0.77;nan;98877.53;6239292;28;20260;-61
2023/01/23 12:28:38;;;;;;;20.50;12.00;;;;;;;0.83;nan;98886.03;6237713;28;20699;-62
2023/01/23 19:07:17;;;;;;;4.05;3.33;;;;;;;23.92;34.41;100442.47;5380801;22;10000242;-65
2023/01/23 19:10:22;;;;;;;3.30;3.00;;;;;;;23.85;34.64;100469.09;5985768;28;63928;-66
2023/01/23 19:13:32;;;;;;;3.53;3.15;;;;;;;23.83;34.49;100463.06;6116169;28;57181;-66
2023/01/23 19:16:51;;;;;;;4.30;3.20;;;;;;;25.90;37.31;100460.53;6212581;28;20556;-68
2023/01/23 19:20:17;;;;;;;3.03;2.30;;;;;;;24.97;34.01;100449.75;6217176;28;20534;-57
2023/01/23 19:23:36;;;;;;;1.42;1.33;;;;;;;24.74;33.30;100459.25;6214761;28;20205;-57
2023/01/23 19:26:40;;;;;;;1.30;1.20;;;;;;;24.54;33.55;100451.81;6213679;28;20279;-57
2023/01/23 19:29:41;;;;;;;1.27;1.17;;;;;;;24.56;33.99;100473.34;6220174;28;20732;-56
2023/01/23 19:32:43;;;;;;;1.73;1.20;;;;;;;24.48;34.07;100473.84;6216529;28;20207;-56
2023/01/23 19:35:46;;;;;;;1.20;1.10;;;;;;;24.48;33.99;100473.84;6216825;28;20517;-62
2023/01/23 19:38:49;;;;;;;1.00;1.00;;;;;;;24.45;33.94;100478.75;6215853;28;20209;-61
2023/01/23 19:41:52;;;;;;;1.20;1.10;;;;;;;24.45;34.34;100491.56;6217843;28;20204;-58
2023/01/23 19:44:53;;;;;;;1.35;1.10;;;;;;;24.45;34.06;100486.94;6216950;28;20310;-57
2023/01/23 19:47:55;;;;;;;1.10;1.00;;;;;;;24.44;34.05;100484.50;6217059;28;20200;-58
2023/01/23 19:50:57;;;;;;;0.80;0.80;;;;;;;24.43;33.82;100478.22;6213774;28;21111;-58
2023/01/23 19:53:59;;;;;;;1.27;1.17;;;;;;;24.37;33.93;100473.81;6214251;28;20953;-59
2023/01/23 19:57:00;;;;;;;1.17;1.08;;;;;;;24.43;34.12;100491.00;6215608;28;20981;-59
2023/01/23 20:00:02;;;;;;;1.45;1.35;;;;;;;24.44;34.17;100490.75;6215128;28;20201;-59
2023/01/23 20:03:13;;;;;;;1.38;1.27;;;;;;;24.43;34.40;100483.66;6222744;28;20703;-60
2023/01/23 20:06:15;;;;;;;1.25;1.10;;;;;;;24.46;34.11;100495.94;6222188;28;20320;-56
2023/01/23 20:09:17;;;;;;;1.23;1.13;;;;;;;24.46;33.76;100504.09;6211439;28;20542;-57
2023/01/23 20:12:18;;;;;;;1.27;1.17;;;;;;;24.45;33.89;100492.38;6211865;28;20259;-58
2023/01/23 20:15:22;;;;;;;1.00;0.90;;;;;;;24.35;34.00;100473.22;6213594;28;20712;-59
2023/01/23 20:18:24;;;;;;;1.33;1.00;;;;;;;24.44;34.22;100490.75;6194789;28;20320;-59
2023/01/23 20:21:26;;;;;;;1.25;1.15;;;;;;;24.43;33.94;100499.16;6195366;28;20208;-57
2023/01/23 20:24:27;;;;;;;0.88;0.88;;;;;;;24.44;34.03;100496.22;6184417;28;21123;-61
2023/01/23 20:27:29;;;;;;;1.20;1.10;;;;;;;24.43;34.27;100497.28;6185835;28;20316;-60
2023/01/23 20:30:31;;;;;;;0.95;0.95;;;;;;;24.39;34.16;100490.72;5311237;28;10000847;-57
2023/01/23 20:33:34;;;;;;;1.20;1.10;;;;;;;24.42;33.65;100503.00;6195398;28;20212;-59
2023/01/23 20:36:35;;;;;;;1.30;1.20;;;;;;;24.41;33.96;100506.81;6195110;28;20189;-58
2023/01/23 20:39:39;;;;;;;1.17;1.08;;;;;;;24.40;33.91;100497.00;6194306;28;20257;-59
2023/01/23 20:42:41;;;;;;;1.15;1.05;;;;;;;24.33;33.56;100493.63;6193046;28;20283;-58
2023/01/23 20:45:46;;;;;;;1.35;1.25;;;;;;;24.40;33.87;100503.25;6194624;28;20229;-59
2023/01/23 20:48:48;;;;;;;1.05;1.00;;;;;;;24.40;33.77;100507.91;6194050;28;20997;-59
2023/01/23 20:51:49;;;;;;;1.20;1.10;;;;;;;24.40;34.10;100518.78;6196013;28;20248;-59
2023/01/23 20:54:51;;;;;;;1.20;1.10;;;;;;;24.40;34.04;100516.88;6194502;28;20281;-60
2023/01/23 21:01:14;;;;;;;1.15;1.05;;;;;;;24.40;34.09;100519.63;6194985;28;20197;-58
2023/01/23 21:04:16;;;;;;;1.30;1.17;;;;;;;24.39;34.32;100523.44;6197725;28;20205;-57
2023/01/23 21:07:21;;;;;;;0.80;0.80;;;;;;;24.38;34.13;100513.63;6195028;28;20244;-59
2023/01/23 21:10:23;;;;;;;1.20;1.10;;;;;;;24.39;33.85;100520.69;6192685;28;20288;-58
2023/01/23 21:13:25;;;;;;;0.90;0.90;;;;;;;24.38;33.87;100519.06;6195453;28;20272;-57
2023/01/23 21:16:26;;;;;;;1.00;0.93;;;;;;;24.38;34.10;100535.41;6194839;28;20984;-59
2023/01/23 21:19:28;;;;;;;1.60;1.23;;;;;;;24.39;34.06;100547.13;6196028;28;20200;-58
2023/01/23 21:22:30;;;;;;;1.23;1.13;;;;;;;24.37;34.11;100547.38;6195368;28;20206;-60
2023/01/23 21:25:34;;;;;;;1.33;1.23;;;;;;;24.30;34.09;100540.50;6192777;28;20209;-58
2023/01/23 21:28:37;;;;;;;1.00;0.90;;;;;;;24.38;33.95;100556.38;6192977;28;20950;-59